sensor_id;sensor_type;location;lat;lon;timestamp;P1;durP1;ratioP1;P2;durP2;ratioP2
78897;SDS011;68287;44.714;37.756;2023-03-01T00:01:10;3.83;;;1.42;;
78897;SDS011;68287;44.714;37.756;2023-03-01T00:02:13;4.38;;;1.60;;
78897;SDS011;68287;44.714;37.756;2023-03-01T00:03:14;4.80;;;1.73;;
78897;SDS011;68287;44.714;37.756;2023-03-01T00:04:16;4.72;;;1.80;;
78897;SDS011;68287;44.714;37.756;2023-03-01T00:05:17;4.30;;;1.73;;
78897;SDS011;68287;44.714;37.756;2023-03-01T00:06:19;4.40;;;1.95;;
78897;SDS011;68287;44.714;37.756;2023-03-01T00:07:21;3.95;;;1.60;;
78897;SDS011;68287;44.714;37.756;2023-03-01T00:08:22;4.32;;;1.77;;
78897;SDS011;68287;44.714;37.756;2023-03-01T00:09:23;4.05;;;1.65;;
78897;SDS011;68287;44.714;37.756;2023-03-01T00:10:25;4.75;;;1.92;;
78897;SDS011;68287;44.714;37.756;2023-03-01T00:11:28;3.75;;;1.65;;
78897;SDS011;68287;44.714;37.756;2023-03-01T00:12:31;4.50;;;1.70;;
78897;SDS011;68287;44.714;37.756;2023-03-01T00:13:33;3.35;;;1.52;;
78897;SDS011;68287;44.714;37.756;2023-03-01T00:14:35;4.43;;;1.80;;
78897;SDS011;68287;44.714;37.756;2023-03-01T00:15:40;4.13;;;1.65;;
78897;SDS011;68287;44.714;37.756;2023-03-01T00:16:42;3.78;;;1.70;;
78897;SDS011;68287;44.714;37.756;2023-03-01T00:17:44;4.40;;;1.83;;
78897;SDS011;68287;44.714;37.756;2023-03-01T00:18:46;4.35;;;1.52;;
78897;SDS011;68287;44.714;37.756;2023-03-01T00:19:47;3.88;;;1.58;;
78897;SDS011;68287;44.714;37.756;2023-03-01T00:20:52;4.32;;;1.90;;
78897;SDS011;68287;44.714;37.756;2023-03-01T00:21:55;4.85;;;1.80;;
78897;SDS011;68287;44.714;37.756;2023-03-01T00:22:56;4.03;;;1.63;;
78897;SDS011;68287;44.714;37.756;2023-03-01T00:23:58;3.90;;;1.63;;
78897;SDS011;68287;44.714;37.756;2023-03-01T00:24:59;4.10;;;1.80;;
78897;SDS011;68287;44.714;37.756;2023-03-01T00:26:01;3.55;;;1.63;;
78897;SDS011;68287;44.714;37.756;2023-03-01T00:27:02;4.20;;;1.63;;
78897;SDS011;68287;44.714;37.756;2023-03-01T00:28:04;4.35;;;1.70;;
78897;SDS011;68287;44.714;37.756;2023-03-01T00:29:05;4.20;;;1.52;;
78897;SDS011;68287;44.714;37.756;2023-03-01T00:30:11;4.22;;;1.80;;
78897;SDS011;68287;44.714;37.756;2023-03-01T00:31:14;4.20;;;1.63;;
78897;SDS011;68287;44.714;37.756;2023-03-01T00:32:17;4.10;;;1.73;;
78897;SDS011;68287;44.714;37.756;2023-03-01T00:33:18;4.07;;;1.40;;
78897;SDS011;68287;44.714;37.756;2023-03-01T00:34:20;4.07;;;1.70;;
78897;SDS011;68287;44.714;37.756;2023-03-01T00:35:21;3.80;;;1.67;;
78897;SDS011;68287;44.714;37.756;2023-03-01T00:36:28;3.65;;;1.65;;
78897;SDS011;68287;44.714;37.756;2023-03-01T00:37:31;4.13;;;1.83;;
78897;SDS011;68287;44.714;37.756;2023-03-01T00:38:36;4.63;;;1.80;;
78897;SDS011;68287;44.714;37.756;2023-03-01T00:39:42;3.95;;;1.50;;
78897;SDS011;68287;44.714;37.756;2023-03-01T00:40:43;3.53;;;1.55;;
78897;SDS011;68287;44.714;37.756;2023-03-01T00:41:45;3.88;;;1.58;;
78897;SDS011;68287;44.714;37.756;2023-03-01T00:42:47;4.97;;;1.80;;
78897;SDS011;68287;44.714;37.756;2023-03-01T00:43:49;3.80;;;1.60;;
78897;SDS011;68287;44.714;37.756;2023-03-01T00:44:51;4.03;;;1.60;;
78897;SDS011;68287;44.714;37.756;2023-03-01T00:45:52;5.40;;;2.00;;
78897;SDS011;68287;44.714;37.756;2023-03-01T00:46:54;4.60;;;1.60;;
78897;SDS011;68287;44.714;37.756;2023-03-01T00:47:55;3.72;;;1.50;;
78897;SDS011;68287;44.714;37.756;2023-03-01T00:48:57;3.83;;;1.60;;
78897;SDS011;68287;44.714;37.756;2023-03-01T00:49:59;3.80;;;1.50;;
78897;SDS011;68287;44.714;37.756;2023-03-01T00:51:19;4.40;;;1.60;;
78897;SDS011;68287;44.714;37.756;2023-03-01T00:52:26;4.28;;;1.80;;
78897;SDS011;68287;44.714;37.756;2023-03-01T00:53:29;4.25;;;1.70;;
78897;SDS011;68287;44.714;37.756;2023-03-01T00:54:30;4.35;;;1.95;;
78897;SDS011;68287;44.714;37.756;2023-03-01T00:55:32;4.35;;;1.73;;
78897;SDS011;68287;44.714;37.756;2023-03-01T00:56:33;4.50;;;2.08;;
78897;SDS011;68287;44.714;37.756;2023-03-01T00:57:35;3.42;;;1.42;;
78897;SDS011;68287;44.714;37.756;2023-03-01T00:58:37;3.83;;;1.63;;
78897;SDS011;68287;44.714;37.756;2023-03-01T00:59:38;3.63;;;1.50;;
78897;SDS011;68287;44.714;37.756;2023-03-01T01:00:40;5.13;;;1.75;;
78897;SDS011;68287;44.714;37.756;2023-03-01T01:01:41;3.90;;;1.58;;
78897;SDS011;68287;44.714;37.756;2023-03-01T01:02:43;3.45;;;1.65;;
78897;SDS011;68287;44.714;37.756;2023-03-01T01:03:46;4.35;;;1.73;;
78897;SDS011;68287;44.714;37.756;2023-03-01T01:04:55;4.65;;;1.90;;
78897;SDS011;68287;44.714;37.756;2023-03-01T01:05:57;4.03;;;1.70;;
78897;SDS011;68287;44.714;37.756;2023-03-01T01:06:59;3.78;;;1.63;;
78897;SDS011;68287;44.714;37.756;2023-03-01T01:08:00;3.83;;;1.65;;
78897;SDS011;68287;44.714;37.756;2023-03-01T01:09:03;3.72;;;1.60;;
78897;SDS011;68287;44.714;37.756;2023-03-01T01:10:06;4.65;;;1.77;;
78897;SDS011;68287;44.714;37.756;2023-03-01T01:11:09;4.20;;;1.73;;
78897;SDS011;68287;44.714;37.756;2023-03-01T01:12:11;3.72;;;1.70;;
78897;SDS011;68287;44.714;37.756;2023-03-01T01:13:13;3.97;;;1.73;;
78897;SDS011;68287;44.714;37.756;2023-03-01T01:14:15;4.80;;;1.80;;
78897;SDS011;68287;44.714;37.756;2023-03-01T01:15:16;3.75;;;1.60;;
78897;SDS011;68287;44.714;37.756;2023-03-01T01:16:18;3.88;;;1.88;;
78897;SDS011;68287;44.714;37.756;2023-03-01T01:17:21;4.60;;;1.70;;
78897;SDS011;68287;44.714;37.756;2023-03-01T01:18:22;3.22;;;1.38;;
78897;SDS011;68287;44.714;37.756;2023-03-01T01:19:24;3.65;;;1.42;;
78897;SDS011;68287;44.714;37.756;2023-03-01T01:20:26;3.58;;;1.50;;
78897;SDS011;68287;44.714;37.756;2023-03-01T01:21:28;4.15;;;1.63;;
78897;SDS011;68287;44.714;37.756;2023-03-01T01:22:30;3.65;;;1.50;;
78897;SDS011;68287;44.714;37.756;2023-03-01T01:23:32;3.75;;;1.42;;
78897;SDS011;68287;44.714;37.756;2023-03-01T01:24:33;5.55;;;1.83;;
78897;SDS011;68287;44.714;37.756;2023-03-01T01:25:35;4.07;;;1.77;;
78897;SDS011;68287;44.714;37.756;2023-03-01T01:26:37;3.92;;;1.58;;
78897;SDS011;68287;44.714;37.756;2023-03-01T01:27:39;3.85;;;1.58;;
78897;SDS011;68287;44.714;37.756;2023-03-01T01:28:40;4.30;;;1.85;;
78897;SDS011;68287;44.714;37.756;2023-03-01T01:29:42;4.47;;;1.88;;
78897;SDS011;68287;44.714;37.756;2023-03-01T01:30:43;4.40;;;1.95;;
78897;SDS011;68287;44.714;37.756;2023-03-01T01:31:45;4.13;;;1.88;;
78897;SDS011;68287;44.714;37.756;2023-03-01T01:32:47;3.90;;;1.60;;
78897;SDS011;68287;44.714;37.756;2023-03-01T01:33:49;3.90;;;1.67;;
78897;SDS011;68287;44.714;37.756;2023-03-01T01:34:51;4.13;;;1.70;;
78897;SDS011;68287;44.714;37.756;2023-03-01T01:35:52;4.53;;;1.52;;
78897;SDS011;68287;44.714;37.756;2023-03-01T01:36:54;3.38;;;1.67;;
78897;SDS011;68287;44.714;37.756;2023-03-01T01:37:56;4.13;;;1.70;;
78897;SDS011;68287;44.714;37.756;2023-03-01T01:38:57;3.63;;;1.63;;
78897;SDS011;68287;44.714;37.756;2023-03-01T01:39:59;4.93;;;1.70;;
78897;SDS011;68287;44.714;37.756;2023-03-01T01:41:05;4.00;;;1.80;;
78897;SDS011;68287;44.714;37.756;2023-03-01T01:42:12;4.22;;;1.70;;
78897;SDS011;68287;44.714;37.756;2023-03-01T01:43:24;3.90;;;1.60;;
78897;SDS011;68287;44.714;37.756;2023-03-01T01:44:28;3.53;;;1.70;;
78897;SDS011;68287;44.714;37.756;2023-03-01T01:45:32;3.90;;;1.70;;
78897;SDS011;68287;44.714;37.756;2023-03-01T01:46:46;3.63;;;1.52;;
78897;SDS011;68287;44.714;37.756;2023-03-01T01:47:51;4.20;;;2.00;;
78897;SDS011;68287;44.714;37.756;2023-03-01T01:50:08;3.47;;;1.60;;
78897;SDS011;68287;44.714;37.756;2023-03-01T01:51:21;3.85;;;1.50;;
78897;SDS011;68287;44.714;37.756;2023-03-01T01:52:27;4.28;;;1.95;;
78897;SDS011;68287;44.714;37.756;2023-03-01T01:53:32;3.92;;;1.88;;
78897;SDS011;68287;44.714;37.756;2023-03-01T01:54:44;4.50;;;1.80;;
78897;SDS011;68287;44.714;37.756;2023-03-01T01:56:03;4.25;;;1.85;;
78897;SDS011;68287;44.714;37.756;2023-03-01T01:57:11;3.92;;;1.70;;
78897;SDS011;68287;44.714;37.756;2023-03-01T01:58:18;4.53;;;1.73;;
78897;SDS011;68287;44.714;37.756;2023-03-01T01:59:21;3.03;;;1.48;;
78897;SDS011;68287;44.714;37.756;2023-03-01T02:00:26;3.60;;;1.58;;
78897;SDS011;68287;44.714;37.756;2023-03-01T02:01:28;3.47;;;1.48;;
78897;SDS011;68287;44.714;37.756;2023-03-01T02:02:30;4.03;;;1.80;;
78897;SDS011;68287;44.714;37.756;2023-03-01T02:03:32;4.50;;;1.73;;
78897;SDS011;68287;44.714;37.756;2023-03-01T02:04:38;3.55;;;1.40;;
78897;SDS011;68287;44.714;37.756;2023-03-01T02:05:45;3.90;;;1.70;;
78897;SDS011;68287;44.714;37.756;2023-03-01T02:06:55;3.88;;;1.60;;
78897;SDS011;68287;44.714;37.756;2023-03-01T02:08:01;4.72;;;1.88;;
78897;SDS011;68287;44.714;37.756;2023-03-01T02:09:05;4.32;;;1.75;;
78897;SDS011;68287;44.714;37.756;2023-03-01T02:10:10;3.92;;;1.73;;
78897;SDS011;68287;44.714;37.756;2023-03-01T02:11:11;4.45;;;1.75;;
78897;SDS011;68287;44.714;37.756;2023-03-01T02:12:19;4.30;;;1.67;;
78897;SDS011;68287;44.714;37.756;2023-03-01T02:13:23;4.60;;;1.52;;
78897;SDS011;68287;44.714;37.756;2023-03-01T02:14:25;3.58;;;1.52;;
78897;SDS011;68287;44.714;37.756;2023-03-01T02:15:27;4.47;;;1.80;;
78897;SDS011;68287;44.714;37.756;2023-03-01T02:16:33;4.28;;;1.73;;
78897;SDS011;68287;44.714;37.756;2023-03-01T02:17:35;3.55;;;1.50;;
78897;SDS011;68287;44.714;37.756;2023-03-01T02:18:39;3.75;;;1.52;;
78897;SDS011;68287;44.714;37.756;2023-03-01T02:19:58;4.40;;;1.73;;
78897;SDS011;68287;44.714;37.756;2023-03-01T02:21:30;4.07;;;1.65;;
78897;SDS011;68287;44.714;37.756;2023-03-01T02:22:37;3.95;;;1.75;;
78897;SDS011;68287;44.714;37.756;2023-03-01T02:23:40;4.30;;;1.70;;
78897;SDS011;68287;44.714;37.756;2023-03-01T02:27:08;3.42;;;1.33;;
78897;SDS011;68287;44.714;37.756;2023-03-01T02:29:16;3.88;;;1.63;;
78897;SDS011;68287;44.714;37.756;2023-03-01T02:30:18;4.22;;;1.80;;
78897;SDS011;68287;44.714;37.756;2023-03-01T02:31:21;4.03;;;1.60;;
78897;SDS011;68287;44.714;37.756;2023-03-01T02:32:42;4.55;;;1.75;;
78897;SDS011;68287;44.714;37.756;2023-03-01T02:33:44;4.93;;;1.83;;
78897;SDS011;68287;44.714;37.756;2023-03-01T02:34:46;3.90;;;1.67;;
78897;SDS011;68287;44.714;37.756;2023-03-01T02:35:48;4.32;;;1.67;;
78897;SDS011;68287;44.714;37.756;2023-03-01T02:36:52;4.55;;;1.83;;
78897;SDS011;68287;44.714;37.756;2023-03-01T02:37:58;3.63;;;1.52;;
78897;SDS011;68287;44.714;37.756;2023-03-01T02:39:03;3.97;;;1.70;;
78897;SDS011;68287;44.714;37.756;2023-03-01T02:40:09;4.55;;;1.77;;
78897;SDS011;68287;44.714;37.756;2023-03-01T02:41:16;4.35;;;1.70;;
78897;SDS011;68287;44.714;37.756;2023-03-01T02:42:21;3.95;;;1.55;;
78897;SDS011;68287;44.714;37.756;2023-03-01T02:43:27;4.55;;;1.58;;
78897;SDS011;68287;44.714;37.756;2023-03-01T02:44:31;3.88;;;1.73;;
78897;SDS011;68287;44.714;37.756;2023-03-01T02:45:33;4.25;;;1.73;;
78897;SDS011;68287;44.714;37.756;2023-03-01T02:46:41;3.45;;;1.52;;
78897;SDS011;68287;44.714;37.756;2023-03-01T02:47:44;3.60;;;1.52;;
78897;SDS011;68287;44.714;37.756;2023-03-01T02:48:47;4.32;;;1.70;;
78897;SDS011;68287;44.714;37.756;2023-03-01T02:49:50;4.22;;;1.92;;
78897;SDS011;68287;44.714;37.756;2023-03-01T02:52:11;4.40;;;1.67;;
78897;SDS011;68287;44.714;37.756;2023-03-01T02:55:04;3.97;;;1.73;;
78897;SDS011;68287;44.714;37.756;2023-03-01T02:56:09;3.80;;;1.50;;
78897;SDS011;68287;44.714;37.756;2023-03-01T02:57:14;3.42;;;1.60;;
78897;SDS011;68287;44.714;37.756;2023-03-01T02:58:17;4.05;;;1.90;;
78897;SDS011;68287;44.714;37.756;2023-03-01T02:59:22;4.30;;;1.58;;
78897;SDS011;68287;44.714;37.756;2023-03-01T03:00:32;3.83;;;1.50;;
78897;SDS011;68287;44.714;37.756;2023-03-01T03:01:41;5.00;;;1.80;;
78897;SDS011;68287;44.714;37.756;2023-03-01T03:02:43;4.28;;;1.85;;
78897;SDS011;68287;44.714;37.756;2023-03-01T03:03:50;3.88;;;1.73;;
78897;SDS011;68287;44.714;37.756;2023-03-01T03:04:51;4.45;;;1.98;;
78897;SDS011;68287;44.714;37.756;2023-03-01T03:05:53;3.58;;;1.30;;
78897;SDS011;68287;44.714;37.756;2023-03-01T03:06:55;4.38;;;1.83;;
78897;SDS011;68287;44.714;37.756;2023-03-01T03:07:58;3.78;;;1.42;;
78897;SDS011;68287;44.714;37.756;2023-03-01T03:09:01;4.40;;;1.83;;
78897;SDS011;68287;44.714;37.756;2023-03-01T03:10:05;4.00;;;1.63;;
78897;SDS011;68287;44.714;37.756;2023-03-01T03:11:09;4.05;;;1.75;;
78897;SDS011;68287;44.714;37.756;2023-03-01T03:12:10;4.13;;;1.70;;
78897;SDS011;68287;44.714;37.756;2023-03-01T03:13:13;3.28;;;1.40;;
78897;SDS011;68287;44.714;37.756;2023-03-01T03:14:16;3.75;;;1.60;;
78897;SDS011;68287;44.714;37.756;2023-03-01T03:15:20;3.63;;;1.52;;
78897;SDS011;68287;44.714;37.756;2023-03-01T03:16:22;4.18;;;1.73;;
78897;SDS011;68287;44.714;37.756;2023-03-01T03:17:23;3.63;;;1.45;;
78897;SDS011;68287;44.714;37.756;2023-03-01T03:18:25;3.25;;;1.38;;
78897;SDS011;68287;44.714;37.756;2023-03-01T03:19:29;3.92;;;1.90;;
78897;SDS011;68287;44.714;37.756;2023-03-01T03:20:30;4.25;;;1.65;;
78897;SDS011;68287;44.714;37.756;2023-03-01T03:21:32;4.35;;;1.67;;
78897;SDS011;68287;44.714;37.756;2023-03-01T03:22:34;3.33;;;1.33;;
78897;SDS011;68287;44.714;37.756;2023-03-01T03:23:35;4.75;;;2.08;;
78897;SDS011;68287;44.714;37.756;2023-03-01T03:24:37;4.28;;;1.55;;
78897;SDS011;68287;44.714;37.756;2023-03-01T03:25:38;4.30;;;1.80;;
78897;SDS011;68287;44.714;37.756;2023-03-01T03:26:40;4.03;;;1.80;;
78897;SDS011;68287;44.714;37.756;2023-03-01T03:27:41;4.13;;;1.73;;
78897;SDS011;68287;44.714;37.756;2023-03-01T03:28:47;4.28;;;1.63;;
78897;SDS011;68287;44.714;37.756;2023-03-01T03:29:48;4.40;;;1.85;;
78897;SDS011;68287;44.714;37.756;2023-03-01T03:30:50;4.00;;;1.67;;
78897;SDS011;68287;44.714;37.756;2023-03-01T03:31:53;3.75;;;1.63;;
78897;SDS011;68287;44.714;37.756;2023-03-01T03:32:54;3.95;;;1.55;;
78897;SDS011;68287;44.714;37.756;2023-03-01T03:33:56;3.78;;;1.50;;
78897;SDS011;68287;44.714;37.756;2023-03-01T03:34:59;3.83;;;1.63;;
78897;SDS011;68287;44.714;37.756;2023-03-01T03:36:00;3.95;;;1.55;;
78897;SDS011;68287;44.714;37.756;2023-03-01T03:37:02;4.10;;;1.63;;
78897;SDS011;68287;44.714;37.756;2023-03-01T03:38:04;4.38;;;1.80;;
78897;SDS011;68287;44.714;37.756;2023-03-01T03:39:09;3.88;;;1.60;;
78897;SDS011;68287;44.714;37.756;2023-03-01T03:40:11;3.65;;;1.50;;
78897;SDS011;68287;44.714;37.756;2023-03-01T03:41:16;3.97;;;1.85;;
78897;SDS011;68287;44.714;37.756;2023-03-01T03:42:17;4.25;;;1.83;;
78897;SDS011;68287;44.714;37.756;2023-03-01T03:43:20;3.88;;;1.70;;
78897;SDS011;68287;44.714;37.756;2023-03-01T03:44:23;5.45;;;1.52;;
78897;SDS011;68287;44.714;37.756;2023-03-01T03:45:24;4.45;;;1.67;;
78897;SDS011;68287;44.714;37.756;2023-03-01T03:46:25;4.22;;;1.58;;
78897;SDS011;68287;44.714;37.756;2023-03-01T03:47:27;3.42;;;1.50;;
78897;SDS011;68287;44.714;37.756;2023-03-01T03:48:28;4.53;;;1.90;;
78897;SDS011;68287;44.714;37.756;2023-03-01T03:49:29;4.15;;;1.95;;
78897;SDS011;68287;44.714;37.756;2023-03-01T03:50:31;4.65;;;1.90;;
78897;SDS011;68287;44.714;37.756;2023-03-01T03:51:33;3.55;;;1.60;;
78897;SDS011;68287;44.714;37.756;2023-03-01T03:52:34;4.70;;;1.83;;
78897;SDS011;68287;44.714;37.756;2023-03-01T03:53:35;5.80;;;1.65;;
78897;SDS011;68287;44.714;37.756;2023-03-01T03:54:37;6.10;;;1.88;;
78897;SDS011;68287;44.714;37.756;2023-03-01T03:55:38;4.97;;;1.88;;
78897;SDS011;68287;44.714;37.756;2023-03-01T03:56:40;5.03;;;2.00;;
78897;SDS011;68287;44.714;37.756;2023-03-01T03:57:41;4.32;;;1.63;;
78897;SDS011;68287;44.714;37.756;2023-03-01T03:58:42;4.18;;;1.70;;
78897;SDS011;68287;44.714;37.756;2023-03-01T03:59:44;5.00;;;2.22;;
78897;SDS011;68287;44.714;37.756;2023-03-01T04:00:45;4.80;;;2.15;;
78897;SDS011;68287;44.714;37.756;2023-03-01T04:01:48;4.43;;;1.70;;
78897;SDS011;68287;44.714;37.756;2023-03-01T04:02:50;4.43;;;1.98;;
78897;SDS011;68287;44.714;37.756;2023-03-01T04:03:51;5.47;;;2.05;;
78897;SDS011;68287;44.714;37.756;2023-03-01T04:04:55;5.15;;;2.13;;
78897;SDS011;68287;44.714;37.756;2023-03-01T04:05:59;4.40;;;1.88;;
78897;SDS011;68287;44.714;37.756;2023-03-01T04:07:01;5.90;;;1.73;;
78897;SDS011;68287;44.714;37.756;2023-03-01T04:08:02;5.53;;;2.00;;
78897;SDS011;68287;44.714;37.756;2023-03-01T04:09:07;4.95;;;1.80;;
78897;SDS011;68287;44.714;37.756;2023-03-01T04:10:10;5.07;;;1.77;;
78897;SDS011;68287;44.714;37.756;2023-03-01T04:11:18;6.47;;;1.98;;
78897;SDS011;68287;44.714;37.756;2023-03-01T04:13:29;5.70;;;2.28;;
78897;SDS011;68287;44.714;37.756;2023-03-01T04:14:30;8.00;;;2.63;;
78897;SDS011;68287;44.714;37.756;2023-03-01T04:15:32;7.85;;;2.50;;
78897;SDS011;68287;44.714;37.756;2023-03-01T04:16:34;8.68;;;2.97;;
78897;SDS011;68287;44.714;37.756;2023-03-01T04:17:35;12.20;;;3.85;;
78897;SDS011;68287;44.714;37.756;2023-03-01T04:18:37;9.75;;;3.60;;
78897;SDS011;68287;44.714;37.756;2023-03-01T04:19:38;17.15;;;4.85;;
78897;SDS011;68287;44.714;37.756;2023-03-01T04:20:39;14.00;;;4.32;;
78897;SDS011;68287;44.714;37.756;2023-03-01T04:21:41;15.13;;;4.43;;
78897;SDS011;68287;44.714;37.756;2023-03-01T04:22:42;15.77;;;4.70;;
78897;SDS011;68287;44.714;37.756;2023-03-01T04:23:47;20.73;;;5.45;;
78897;SDS011;68287;44.714;37.756;2023-03-01T04:24:49;17.50;;;4.82;;
78897;SDS011;68287;44.714;37.756;2023-03-01T04:25:53;17.70;;;5.85;;
78897;SDS011;68287;44.714;37.756;2023-03-01T04:26:57;16.75;;;5.22;;
78897;SDS011;68287;44.714;37.756;2023-03-01T04:27:58;16.52;;;4.80;;
78897;SDS011;68287;44.714;37.756;2023-03-01T04:29:00;21.00;;;5.45;;
78897;SDS011;68287;44.714;37.756;2023-03-01T04:30:02;18.42;;;5.72;;
78897;SDS011;68287;44.714;37.756;2023-03-01T04:31:05;19.52;;;5.55;;
78897;SDS011;68287;44.714;37.756;2023-03-01T04:32:14;16.10;;;4.82;;
78897;SDS011;68287;44.714;37.756;2023-03-01T04:33:16;20.17;;;5.38;;
78897;SDS011;68287;44.714;37.756;2023-03-01T04:34:18;20.98;;;6.13;;
78897;SDS011;68287;44.714;37.756;2023-03-01T04:35:20;14.85;;;5.18;;
78897;SDS011;68287;44.714;37.756;2023-03-01T04:36:26;15.05;;;4.95;;
78897;SDS011;68287;44.714;37.756;2023-03-01T04:37:28;21.25;;;5.53;;
78897;SDS011;68287;44.714;37.756;2023-03-01T04:38:30;14.27;;;5.43;;
78897;SDS011;68287;44.714;37.756;2023-03-01T04:39:31;16.98;;;5.28;;
78897;SDS011;68287;44.714;37.756;2023-03-01T04:40:33;19.15;;;5.38;;
78897;SDS011;68287;44.714;37.756;2023-03-01T04:41:34;19.30;;;5.25;;
78897;SDS011;68287;44.714;37.756;2023-03-01T04:42:36;15.95;;;5.03;;
78897;SDS011;68287;44.714;37.756;2023-03-01T04:43:37;15.57;;;5.03;;
78897;SDS011;68287;44.714;37.756;2023-03-01T04:44:39;20.20;;;5.43;;
78897;SDS011;68287;44.714;37.756;2023-03-01T04:45:40;16.23;;;5.78;;
78897;SDS011;68287;44.714;37.756;2023-03-01T04:46:41;16.20;;;4.95;;
78897;SDS011;68287;44.714;37.756;2023-03-01T04:47:43;15.98;;;4.97;;
78897;SDS011;68287;44.714;37.756;2023-03-01T04:48:45;11.70;;;4.72;;
78897;SDS011;68287;44.714;37.756;2023-03-01T04:49:47;16.17;;;4.72;;
78897;SDS011;68287;44.714;37.756;2023-03-01T04:50:49;16.45;;;5.28;;
78897;SDS011;68287;44.714;37.756;2023-03-01T04:51:50;19.17;;;5.03;;
78897;SDS011;68287;44.714;37.756;2023-03-01T04:52:51;12.45;;;4.78;;
78897;SDS011;68287;44.714;37.756;2023-03-01T04:53:53;16.20;;;4.88;;
78897;SDS011;68287;44.714;37.756;2023-03-01T04:54:54;16.92;;;5.22;;
78897;SDS011;68287;44.714;37.756;2023-03-01T04:55:56;16.23;;;4.53;;
78897;SDS011;68287;44.714;37.756;2023-03-01T04:56:57;12.85;;;4.60;;
78897;SDS011;68287;44.714;37.756;2023-03-01T04:57:59;14.15;;;4.72;;
78897;SDS011;68287;44.714;37.756;2023-03-01T04:59:00;14.90;;;4.97;;
78897;SDS011;68287;44.714;37.756;2023-03-01T05:00:02;13.38;;;4.28;;
78897;SDS011;68287;44.714;37.756;2023-03-01T05:01:20;12.50;;;3.95;;
78897;SDS011;68287;44.714;37.756;2023-03-01T05:02:21;11.82;;;4.07;;
78897;SDS011;68287;44.714;37.756;2023-03-01T05:03:23;11.65;;;4.13;;
78897;SDS011;68287;44.714;37.756;2023-03-01T05:04:25;13.68;;;4.38;;
78897;SDS011;68287;44.714;37.756;2023-03-01T05:05:27;11.70;;;4.15;;
78897;SDS011;68287;44.714;37.756;2023-03-01T05:06:31;12.50;;;4.10;;
78897;SDS011;68287;44.714;37.756;2023-03-01T05:07:33;10.60;;;3.92;;
78897;SDS011;68287;44.714;37.756;2023-03-01T05:08:35;11.90;;;3.58;;
78897;SDS011;68287;44.714;37.756;2023-03-01T05:09:37;8.70;;;4.00;;
78897;SDS011;68287;44.714;37.756;2023-03-01T05:10:39;12.15;;;3.83;;
78897;SDS011;68287;44.714;37.756;2023-03-01T05:11:41;9.75;;;3.55;;
78897;SDS011;68287;44.714;37.756;2023-03-01T05:12:43;12.93;;;4.53;;
78897;SDS011;68287;44.714;37.756;2023-03-01T05:13:44;14.45;;;4.05;;
78897;SDS011;68287;44.714;37.756;2023-03-01T05:14:46;11.77;;;3.72;;
78897;SDS011;68287;44.714;37.756;2023-03-01T05:15:57;10.38;;;4.25;;
78897;SDS011;68287;44.714;37.756;2023-03-01T05:17:00;10.32;;;4.22;;
78897;SDS011;68287;44.714;37.756;2023-03-01T05:18:04;11.18;;;4.32;;
78897;SDS011;68287;44.714;37.756;2023-03-01T05:19:12;9.35;;;3.80;;
78897;SDS011;68287;44.714;37.756;2023-03-01T05:21:17;13.43;;;3.97;;
78897;SDS011;68287;44.714;37.756;2023-03-01T05:22:18;14.82;;;4.40;;
78897;SDS011;68287;44.714;37.756;2023-03-01T05:23:20;9.45;;;4.07;;
78897;SDS011;68287;44.714;37.756;2023-03-01T05:24:21;11.45;;;3.63;;
78897;SDS011;68287;44.714;37.756;2023-03-01T05:25:23;11.57;;;3.67;;
78897;SDS011;68287;44.714;37.756;2023-03-01T05:26:25;10.60;;;3.88;;
78897;SDS011;68287;44.714;37.756;2023-03-01T05:27:29;12.85;;;4.25;;
78897;SDS011;68287;44.714;37.756;2023-03-01T05:28:31;10.63;;;4.00;;
78897;SDS011;68287;44.714;37.756;2023-03-01T05:29:33;10.93;;;3.83;;
78897;SDS011;68287;44.714;37.756;2023-03-01T05:30:35;9.18;;;3.30;;
78897;SDS011;68287;44.714;37.756;2023-03-01T05:31:39;9.30;;;3.63;;
78897;SDS011;68287;44.714;37.756;2023-03-01T05:32:41;10.02;;;3.85;;
78897;SDS011;68287;44.714;37.756;2023-03-01T05:33:45;9.93;;;4.22;;
78897;SDS011;68287;44.714;37.756;2023-03-01T05:34:47;8.93;;;3.58;;
78897;SDS011;68287;44.714;37.756;2023-03-01T05:35:48;10.07;;;4.05;;
78897;SDS011;68287;44.714;37.756;2023-03-01T05:36:52;8.45;;;3.50;;
78897;SDS011;68287;44.714;37.756;2023-03-01T05:37:54;8.45;;;3.38;;
78897;SDS011;68287;44.714;37.756;2023-03-01T05:38:55;9.90;;;4.10;;
78897;SDS011;68287;44.714;37.756;2023-03-01T05:39:57;8.70;;;3.60;;
78897;SDS011;68287;44.714;37.756;2023-03-01T05:40:58;9.20;;;3.72;;
78897;SDS011;68287;44.714;37.756;2023-03-01T05:42:00;9.93;;;3.90;;
78897;SDS011;68287;44.714;37.756;2023-03-01T05:43:02;9.35;;;3.78;;
78897;SDS011;68287;44.714;37.756;2023-03-01T05:44:06;11.00;;;3.47;;
78897;SDS011;68287;44.714;37.756;2023-03-01T05:45:08;9.45;;;3.95;;
78897;SDS011;68287;44.714;37.756;2023-03-01T05:46:10;8.38;;;3.22;;
78897;SDS011;68287;44.714;37.756;2023-03-01T05:47:14;8.50;;;3.17;;
78897;SDS011;68287;44.714;37.756;2023-03-01T05:48:15;9.43;;;3.83;;
78897;SDS011;68287;44.714;37.756;2023-03-01T05:49:16;10.02;;;3.88;;
78897;SDS011;68287;44.714;37.756;2023-03-01T05:50:20;7.97;;;3.78;;
78897;SDS011;68287;44.714;37.756;2023-03-01T05:51:23;9.00;;;3.63;;
78897;SDS011;68287;44.714;37.756;2023-03-01T05:52:24;8.90;;;3.47;;
78897;SDS011;68287;44.714;37.756;2023-03-01T05:53:26;7.50;;;3.35;;
78897;SDS011;68287;44.714;37.756;2023-03-01T05:54:27;8.55;;;3.03;;
78897;SDS011;68287;44.714;37.756;2023-03-01T05:55:29;7.47;;;3.35;;
78897;SDS011;68287;44.714;37.756;2023-03-01T05:56:32;7.32;;;3.35;;
78897;SDS011;68287;44.714;37.756;2023-03-01T05:57:35;8.75;;;3.58;;
78897;SDS011;68287;44.714;37.756;2023-03-01T05:58:36;8.52;;;3.50;;
78897;SDS011;68287;44.714;37.756;2023-03-01T05:59:39;10.05;;;3.70;;
78897;SDS011;68287;44.714;37.756;2023-03-01T06:00:41;7.18;;;3.42;;
78897;SDS011;68287;44.714;37.756;2023-03-01T06:01:43;9.30;;;3.63;;
78897;SDS011;68287;44.714;37.756;2023-03-01T06:02:45;7.72;;;3.33;;
78897;SDS011;68287;44.714;37.756;2023-03-01T06:03:46;8.25;;;3.85;;
78897;SDS011;68287;44.714;37.756;2023-03-01T06:04:47;8.68;;;3.45;;
78897;SDS011;68287;44.714;37.756;2023-03-01T06:05:49;8.30;;;3.60;;
78897;SDS011;68287;44.714;37.756;2023-03-01T06:06:50;7.18;;;3.17;;
78897;SDS011;68287;44.714;37.756;2023-03-01T06:07:52;7.45;;;2.90;;
78897;SDS011;68287;44.714;37.756;2023-03-01T06:08:54;8.38;;;3.53;;
78897;SDS011;68287;44.714;37.756;2023-03-01T06:09:55;7.40;;;3.53;;
78897;SDS011;68287;44.714;37.756;2023-03-01T06:10:56;8.52;;;3.80;;
78897;SDS011;68287;44.714;37.756;2023-03-01T06:11:58;8.20;;;3.55;;
78897;SDS011;68287;44.714;37.756;2023-03-01T06:12:59;6.97;;;3.38;;
78897;SDS011;68287;44.714;37.756;2023-03-01T06:14:00;6.82;;;2.67;;
78897;SDS011;68287;44.714;37.756;2023-03-01T06:15:02;9.02;;;3.17;;
78897;SDS011;68287;44.714;37.756;2023-03-01T06:16:05;7.03;;;3.20;;
78897;SDS011;68287;44.714;37.756;2023-03-01T06:17:07;7.53;;;3.28;;
78897;SDS011;68287;44.714;37.756;2023-03-01T06:18:09;7.05;;;3.17;;
78897;SDS011;68287;44.714;37.756;2023-03-01T06:19:10;7.53;;;3.10;;
78897;SDS011;68287;44.714;37.756;2023-03-01T06:20:12;6.75;;;3.03;;
78897;SDS011;68287;44.714;37.756;2023-03-01T06:21:16;7.20;;;3.10;;
78897;SDS011;68287;44.714;37.756;2023-03-01T06:22:18;6.63;;;3.13;;
78897;SDS011;68287;44.714;37.756;2023-03-01T06:23:19;8.00;;;2.95;;